Time;durP1;ratioP1;P1;durP2;ratioP2;P2;SDS_P1;SDS_P2;PMS_P1;PMS_P2;Temp;Humidity;BMP_temperature;BMP_pressure;BME280_temperature;BME280_humidity;BME280_pressure;Samples;Min_cycle;Max_cycle;Signal;HPM_P1;HPM_P2
2022/12/31 00:03:19;;;;;;;11.30;7.47;;;7.30;99.90;;;;;;10349240;28;20285;-85
2022/12/31 00:08:21;;;;;;;16.17;9.90;;;7.40;99.90;;;;;;10344844;28;20229;-84
2022/12/31 00:13:24;;;;;;;15.73;8.67;;;7.40;99.90;;;;;;10360616;28;20255;-84
2022/12/31 00:18:26;;;;;;;12.53;8.37;;;7.60;99.90;;;;;;10349927;28;20322;-85
2022/12/31 00:23:29;;;;;;;15.23;8.30;;;7.60;99.90;;;;;;10339551;28;20287;-84
2022/12/31 00:28:32;;;;;;;11.10;7.80;;;7.70;99.90;;;;;;10330028;28;20240;-84
2022/12/31 00:33:35;;;;;;;9.93;6.90;;;7.50;99.90;;;;;;10330303;28;20930;-84
2022/12/31 00:38:39;;;;;;;10.33;6.47;;;7.60;99.90;;;;;;10364445;28;20263;-84
2022/12/31 00:43:42;;;;;;;9.87;6.50;;;7.50;99.90;;;;;;10370058;28;20238;-84
2022/12/31 00:48:45;;;;;;;10.70;6.47;;;7.50;99.90;;;;;;10369383;28;20243;-85
2022/12/31 00:53:47;;;;;;;7.80;6.33;;;7.50;99.90;;;;;;10369056;28;20242;-85
2022/12/31 00:58:51;;;;;;;7.60;6.13;;;7.50;99.90;;;;;;10368053;28;20266;-85
2022/12/31 01:03:57;;;;;;;9.23;6.20;;;7.60;99.90;;;;;;10367872;28;20243;-85
2022/12/31 01:09:00;;;;;;;7.47;6.23;;;7.70;99.90;;;;;;10369469;28;20630;-85
2022/12/31 01:14:21;;;;;;;8.77;6.23;;;7.80;99.90;;;;;;10368162;28;20236;-85
2022/12/31 01:19:27;;;;;;;12.17;6.13;;;7.80;99.90;;;;;;10367280;28;20266;-85
2022/12/31 01:24:30;;;;;;;9.43;5.40;;;7.80;99.90;;;;;;10369209;28;20235;-85
2022/12/31 01:29:32;;;;;;;10.97;6.57;;;7.80;99.90;;;;;;10368062;28;20633;-85
2022/12/31 01:34:35;;;;;;;9.70;5.60;;;7.80;99.90;;;;;;10368465;28;20710;-84
2022/12/31 01:39:37;;;;;;;6.63;4.93;;;7.90;99.90;;;;;;10367636;28;20259;-85
2022/12/31 01:44:40;;;;;;;7.73;5.50;;;8.20;99.90;;;;;;10348887;28;20296;-84
2022/12/31 01:49:52;;;;;;;8.73;5.80;;;8.70;99.90;;;;;;10347119;28;20248;-84
2022/12/31 01:55:24;;;;;;;6.80;4.47;;;8.50;99.90;;;;;;10327043;28;20635;-85
2022/12/31 02:00:26;;;;;;;8.67;5.93;;;8.60;99.90;;;;;;10327610;28;20259;-85
2022/12/31 02:05:37;;;;;;;6.47;4.27;;;8.50;99.90;;;;;;10368230;28;20243;-85
2022/12/31 02:10:40;;;;;;;9.63;5.83;;;8.70;99.90;;;;;;10366377;28;20650;-85
2022/12/31 02:16:01;;;;;;;9.50;5.00;;;8.80;99.90;;;;;;10367088;28;20252;-84
2022/12/31 02:21:09;;;;;;;7.40;4.60;;;9.00;99.90;;;;;;10348904;28;20243;-85
2022/12/31 02:26:36;;;;;;;5.60;4.50;;;9.20;99.90;;;;;;10366873;28;20716;-84
2022/12/31 02:31:48;;;;;;;6.10;4.47;;;9.60;99.90;;;;;;10365837;28;20247;-84
2022/12/31 02:36:53;;;;;;;8.20;4.67;;;9.70;99.90;;;;;;10349369;28;20259;-84
2022/12/31 02:41:58;;;;;;;6.03;4.73;;;9.40;99.90;;;;;;10366904;28;20292;-85
2022/12/31 02:47:07;;;;;;;6.30;4.30;;;9.30;99.90;;;;;;10365262;28;20235;-84
2022/12/31 02:52:23;;;;;;;5.50;4.20;;;10.00;99.90;;;;;;10366824;28;20278;-85
2022/12/31 02:57:43;;;;;;;6.43;4.97;;;9.80;99.90;;;;;;10366214;28;20376;-84
2022/12/31 03:02:46;;;;;;;8.13;4.53;;;9.40;99.90;;;;;;10366438;28;20240;-85
2022/12/31 03:07:49;;;;;;;6.90;5.13;;;9.40;99.90;;;;;;10349474;28;20223;-84
2022/12/31 03:12:52;;;;;;;6.07;4.63;;;9.40;99.90;;;;;;10344538;28;20714;-84
2022/12/31 03:18:08;;;;;;;5.80;5.03;;;9.30;99.90;;;;;;10324714;28;20670;-85
2022/12/31 03:23:13;;;;;;;8.37;4.77;;;9.60;99.90;;;;;;10331244;28;20279;-84
2022/12/31 03:28:18;;;;;;;8.93;4.90;;;9.20;99.90;;;;;;10349168;28;20242;-85
2022/12/31 03:33:22;;;;;;;7.17;4.97;;;9.30;99.90;;;;;;10372054;28;20274;-84
2022/12/31 03:38:24;;;;;;;7.23;4.97;;;9.10;99.90;;;;;;10354774;28;20263;-85
2022/12/31 03:43:27;;;;;;;8.23;4.37;;;8.90;99.90;;;;;;10370678;28;20228;-85
2022/12/31 03:48:29;;;;;;;4.60;4.03;;;8.80;99.90;;;;;;10372069;28;20277;-85
2022/12/31 03:53:33;;;;;;;5.77;4.53;;;8.90;99.90;;;;;;10354248;28;20324;-84
2022/12/31 03:58:36;;;;;;;6.10;4.20;;;8.90;99.90;;;;;;10353918;28;20323;-85
2022/12/31 04:03:38;;;;;;;6.40;4.97;;;8.90;99.90;;;;;;10353586;28;20239;-83
2022/12/31 04:08:41;;;;;;;6.53;4.90;;;9.10;99.90;;;;;;10363331;28;20239;-84
2022/12/31 04:13:43;;;;;;;5.63;4.10;;;9.30;99.90;;;;;;10359545;28;20309;-84
2022/12/31 04:18:46;;;;;;;8.20;4.77;;;9.10;99.90;;;;;;10370004;28;20263;-84
2022/12/31 04:23:48;;;;;;;5.93;4.13;;;9.30;99.90;;;;;;10370327;28;20240;-84
2022/12/31 04:28:51;;;;;;;5.60;4.23;;;9.20;99.90;;;;;;10369599;28;20240;-84
2022/12/31 04:33:53;;;;;;;5.30;4.53;;;9.40;99.90;;;;;;10369315;28;20424;-84
2022/12/31 04:38:56;;;;;;;6.87;5.03;;;9.70;99.90;;;;;;10368872;28;20251;-84
2022/12/31 04:43:59;;;;;;;4.47;3.67;;;9.60;99.90;;;;;;10363433;28;20279;-84
2022/12/31 04:49:02;;;;;;;4.70;3.83;;;9.10;99.90;;;;;;10350385;28;20298;-84
2022/12/31 04:54:07;;;;;;;6.90;4.13;;;8.70;99.90;;;;;;10351643;28;20236;-84
2022/12/31 04:59:10;;;;;;;5.30;4.03;;;8.40;99.90;;;;;;10351356;28;20268;-84
2022/12/31 05:04:13;;;;;;;5.60;4.00;;;8.20;99.90;;;;;;10331504;28;20231;-84
2022/12/31 05:09:15;;;;;;;5.53;3.90;;;8.10;99.90;;;;;;10347814;28;20239;-84
2022/12/31 05:14:27;;;;;;;5.33;3.50;;;8.30;99.90;;;;;;10338470;28;20237;-84
2022/12/31 05:19:30;;;;;;;5.53;3.30;;;8.50;99.90;;;;;;10334113;28;20948;-84
2022/12/31 05:24:33;;;;;;;3.63;3.07;;;8.40;99.90;;;;;;10340663;28;20614;-84
2022/12/31 05:29:36;;;;;;;6.40;4.00;;;8.30;99.90;;;;;;10324364;28;20750;-84
2022/12/31 05:34:39;;;;;;;6.37;4.77;;;8.30;99.90;;;;;;10368009;28;20232;-84
2022/12/31 05:39:41;;;;;;;3.90;3.30;;;8.20;99.90;;;;;;10366755;28;20263;-84
2022/12/31 05:44:44;;;;;;;4.50;3.33;;;8.10;99.90;;;;;;10348016;28;20694;-84
2022/12/31 05:49:46;;;;;;;6.33;3.63;;;8.20;99.90;;;;;;10348844;28;20294;-84
2022/12/31 05:54:49;;;;;;;4.83;3.67;;;8.70;99.90;;;;;;10367323;28;20290;-84
2022/12/31 05:59:52;;;;;;;7.83;3.83;;;8.50;99.90;;;;;;10367221;28;20632;-84
2022/12/31 06:04:54;;;;;;;5.30;3.73;;;8.50;99.90;;;;;;10366354;28;20619;-84
2022/12/31 06:09:57;;;;;;;4.63;3.47;;;8.40;99.90;;;;;;10366533;28;20235;-84
2022/12/31 06:15:00;;;;;;;9.93;4.20;;;8.40;99.90;;;;;;10359902;28;20247;-84
2022/12/31 06:20:04;;;;;;;5.73;3.53;;;8.50;99.90;;;;;;10366422;28;20318;-84
2022/12/31 06:25:14;;;;;;;3.80;3.07;;;8.30;99.90;;;;;;10349221;28;20243;-84
2022/12/31 06:30:16;;;;;;;5.80;3.67;;;8.60;99.90;;;;;;10344202;28;20239;-84
2022/12/31 06:35:19;;;;;;;5.27;4.07;;;8.50;99.90;;;;;;10367060;28;20350;-84
2022/12/31 06:40:22;;;;;;;5.57;3.90;;;8.50;99.90;;;;;;10367292;28;20251;-84
2022/12/31 06:45:24;;;;;;;6.67;3.50;;;8.50;99.90;;;;;;10365762;28;20750;-84
2022/12/31 06:50:27;;;;;;;4.00;3.17;;;8.60;99.90;;;;;;10366729;28;20231;-84
2022/12/31 06:55:29;;;;;;;4.73;3.47;;;8.60;99.90;;;;;;10369219;28;20231;-84
2022/12/31 07:00:32;;;;;;;3.57;2.87;;;8.60;99.90;;;;;;10353365;28;20298;-84
2022/12/31 07:05:47;;;;;;;3.57;2.67;;;8.70;99.90;;;;;;10334164;28;20294;-84
2022/12/31 07:11:01;;;;;;;2.60;2.20;;;8.50;99.90;;;;;;10353569;28;20609;-83
2022/12/31 07:16:22;;;;;;;3.17;2.87;;;8.40;99.90;;;;;;10372326;28;20258;-84
2022/12/31 07:21:33;;;;;;;4.33;3.40;;;8.30;99.90;;;;;;10356970;28;20227;-84
2022/12/31 07:26:51;;;;;;;5.73;3.67;;;8.10;99.90;;;;;;10343516;28;20225;-84
2022/12/31 07:32:18;;;;;;;4.07;3.40;;;8.10;99.90;;;;;;10349263;28;20310;-84
2022/12/31 07:38:03;;;;;;;4.47;3.27;;;8.10;99.90;;;;;;10356547;28;20250;-84
2022/12/31 07:43:31;;;;;;;4.60;3.83;;;8.20;99.90;;;;;;10372144;28;20318;-84
2022/12/31 07:48:33;;;;;;;6.33;4.73;;;8.30;99.90;;;;;;10372674;28;20259;-84
2022/12/31 07:53:37;;;;;;;5.33;3.80;;;8.40;99.90;;;;;;10372652;28;20314;-84
2022/12/31 07:58:39;;;;;;;4.10;3.13;;;8.50;99.90;;;;;;10372471;28;20290;-84
2022/12/31 08:03:55;;;;;;;5.40;2.60;;;8.60;99.90;;;;;;10372585;28;20235;-84
2022/12/31 08:09:31;;;;;;;8.10;4.43;;;8.80;99.90;;;;;;10369833;28;20236;-84
2022/12/31 08:14:43;;;;;;;4.53;4.07;;;8.90;99.90;;;;;;10353404;28;20607;-84
2022/12/31 08:19:46;;;;;;;3.53;2.63;;;9.00;99.90;;;;;;10344557;28;20255;-84
2022/12/31 08:25:34;;;;;;;5.10;3.50;;;9.30;99.90;;;;;;10371105;28;20382;-84
2022/12/31 08:31:16;;;;;;;5.03;4.17;;;9.50;99.90;;;;;;10150407;29;20274;-84
2022/12/31 08:36:37;;;;;;;5.53;4.30;;;9.60;99.90;;;;;;10115155;29;20301;-84
2022/12/31 08:41:45;;;;;;;6.63;4.27;;;9.60;99.90;;;;;;10134746;29;20265;-84
2022/12/31 08:47:03;;;;;;;5.60;4.17;;;9.60;99.90;;;;;;10132905;29;20239;-84
2022/12/31 08:52:14;;;;;;;7.40;4.97;;;9.80;99.90;;;;;;10166771;29;20243;-84
2022/12/31 08:57:50;;;;;;;3.90;3.10;;;10.00;99.90;;;;;;10129970;29;20316;-84
2022/12/31 09:03:13;;;;;;;5.20;3.43;;;10.10;99.90;;;;;;10368303;28;20698;-85
2022/12/31 09:08:48;;;;;;;3.63;3.13;;;10.10;99.90;;;;;;10369923;28;20232;-85
2022/12/31 09:14:02;;;;;;;4.20;3.37;;;10.10;99.90;;;;;;10370274;28;20266;-85
2022/12/31 09:19:08;;;;;;;4.30;3.87;;;10.20;99.90;;;;;;10342283;28;20992;-84
2022/12/31 09:24:15;;;;;;;4.27;3.60;;;10.20;99.90;;;;;;10341191;28;20228;-84
2022/12/31 09:29:45;;;;;;;5.33;4.03;;;10.30;99.90;;;;;;10351774;28;20227;-84
2022/12/31 09:35:02;;;;;;;3.20;2.40;;;10.40;99.90;;;;;;10350171;28;20277;-85
2022/12/31 09:40:29;;;;;;;4.17;2.83;;;10.60;99.90;;;;;;10367953;28;20282;-84
2022/12/31 09:45:50;;;;;;;3.93;2.90;;;11.30;99.90;;;;;;10366900;28;20628;-84
2022/12/31 09:51:04;;;;;;;3.07;2.77;;;12.00;99.90;;;;;;10366877;28;20298;-84
2022/12/31 09:56:15;;;;;;;4.27;3.00;;;12.40;99.90;;;;;;10367152;28;20239;-84
2022/12/31 10:01:24;;;;;;;3.53;2.90;;;12.70;99.90;;;;;;10366692;28;20318;-86
2022/12/31 10:07:09;;;;;;;3.30;2.73;;;12.90;99.90;;;;;;10366880;28;20298;-85
2022/12/31 10:29:23;;;;;;;3.85;2.40;;;13.30;99.90;;;;;;12371585;23;10002552;-86
2022/12/31 10:34:43;;;;;;;3.17;2.47;;;13.80;99.90;;;;;;10293846;28;20512;-85
2022/12/31 10:40:13;;;;;;;5.37;2.10;;;14.20;99.90;;;;;;10299292;28;20256;-85
2022/12/31 10:45:46;;;;;;;6.87;3.30;;;15.40;99.90;;;;;;10298400;28;20694;-84
2022/12/31 10:51:07;;;;;;;5.13;3.07;;;15.20;99.90;;;;;;10299719;28;20280;-84
2022/12/31 11:02:25;;;;;;;5.27;1.90;;;15.40;99.90;;;;;;10282471;28;20268;-84
2022/12/31 11:07:53;;;;;;;3.77;1.90;;;15.40;99.90;;;;;;10278719;28;20690;-84
2022/12/31 11:13:05;;;;;;;3.70;2.97;;;15.50;99.90;;;;;;10283563;28;20256;-83
2022/12/31 11:18:07;;;;;;;3.13;2.50;;;15.20;99.90;;;;;;10295688;28;20272;-84
2022/12/31 11:23:20;;;;;;;4.97;2.90;;;15.10;99.90;;;;;;10321196;28;20236;-84
2022/12/31 11:28:47;;;;;;;3.63;2.40;;;14.70;99.90;;;;;;10298710;28;20231;-84
2022/12/31 11:33:56;;;;;;;3.17;2.37;;;14.90;99.90;;;;;;10302323;28;20288;-83
2022/12/31 11:39:36;;;;;;;3.03;2.60;;;15.00;99.90;;;;;;10302024;28;20229;-84
2022/12/31 11:44:50;;;;;;;5.37;3.00;;;14.80;99.90;;;;;;10295956;28;20198;-83
2022/12/31 11:50:11;;;;;;;4.77;3.07;;;15.20;99.90;;;;;;10298827;28;20539;-82
2022/12/31 11:55:46;;;;;;;9.67;4.97;;;15.10;99.90;;;;;;10296219;28;20209;-83
2022/12/31 12:00:58;;;;;;;5.97;3.57;;;14.90;99.90;;;;;;10234187;29;20257;-83
2022/12/31 12:06:00;;;;;;;3.47;2.77;;;14.80;99.90;;;;;;10276185;28;20225;-82
2022/12/31 12:11:26;;;;;;;8.93;3.60;;;14.90;99.90;;;;;;10294146;28;20664;-83
2022/12/31 12:16:28;;;;;;;5.27;3.20;;;14.80;99.90;;;;;;10295080;28;20213;-83
2022/12/31 12:21:32;;;;;;;5.07;3.00;;;14.80;99.90;;;;;;10294479;28;20256;-83
2022/12/31 12:26:40;;;;;;;5.23;3.50;;;14.70;99.90;;;;;;10295256;28;20233;-83
2022/12/31 12:31:54;;;;;;;5.10;3.70;;;14.70;99.90;;;;;;10295089;28;20284;-83
2022/12/31 12:36:57;;;;;;;6.37;4.03;;;14.80;99.90;;;;;;10293661;28;20206;-83
2022/12/31 12:42:01;;;;;;;4.87;3.47;;;14.70;99.90;;;;;;10294772;28;20218;-83
2022/12/31 12:47:07;;;;;;;8.03;4.30;;;14.50;99.90;;;;;;10293907;28;20236;-83
2022/12/31 12:52:28;;;;;;;4.87;3.47;;;14.30;99.90;;;;;;10293766;28;20213;-83
2022/12/31 12:57:44;;;;;;;5.33;3.70;;;14.10;99.90;;;;;;10277187;28;20231;-83
2022/12/31 13:03:07;;;;;;;7.87;4.67;;;14.10;99.90;;;;;;10294004;28;20236;-83
2022/12/31 13:08:31;;;;;;;6.07;3.37;;;14.00;99.90;;;;;;10293809;28;20620;-83
2022/12/31 13:13:57;;;;;;;3.63;2.43;;;14.20;99.90;;;;;;10293605;28;20578;-83
2022/12/31 13:19:35;;;;;;;2.53;1.80;;;14.60;99.90;;;;;;10293275;28;20249;-82
2022/12/31 13:25:23;;;;;;;3.00;2.50;;;15.10;99.90;;;;;;10293264;28;20225;-82
2022/12/31 13:30:56;;;;;;;6.03;2.73;;;15.30;99.90;;;;;;10286750;28;20229;-82
2022/12/31 13:36:14;;;;;;;3.33;2.67;;;15.50;99.90;;;;;;10257842;28;20671;-82
2022/12/31 13:41:27;;;;;;;4.50;2.87;;;15.60;99.90;;;;;;10292514;28;20222;-83
2022/12/31 13:46:42;;;;;;;4.13;1.77;;;15.80;99.90;;;;;;10292563;28;20194;-83
2022/12/31 13:51:59;;;;;;;6.10;2.23;;;15.90;99.90;;;;;;10291337;28;20260;-83
2022/12/31 13:57:10;;;;;;;3.23;2.03;;;15.90;99.90;;;;;;10290405;28;20209;-83
2022/12/31 14:02:42;;;;;;;1.33;0.67;;;15.90;99.90;;;;;;10271179;28;20599;-83
2022/12/31 14:07:54;;;;;;;2.63;2.17;;;16.00;99.90;;;;;;10251042;28;20194;-83
2022/12/31 14:13:04;;;;;;;3.63;2.17;;;15.80;99.90;;;;;;10251811;29;20556;-83
2022/12/31 14:18:22;;;;;;;3.30;2.00;;;15.80;99.90;;;;;;10250965;29;20757;-83
2022/12/31 14:23:43;;;;;;;4.00;2.10;;;15.70;99.90;;;;;;10251128;29;20205;-83
2022/12/31 14:29:01;;;;;;;3.97;2.53;;;15.80;99.90;;;;;;10251202;29;20536;-83
2022/12/31 14:34:14;;;;;;;5.80;2.40;;;15.60;99.90;;;;;;10251008;29;20234;-82
2022/12/31 14:39:24;;;;;;;3.70;2.20;;;15.70;99.90;;;;;;10251268;29;20225;-83
2022/12/31 14:45:00;;;;;;;3.77;2.80;;;15.70;99.90;;;;;;10249591;29;20202;-83
2022/12/31 14:50:03;;;;;;;3.93;2.50;;;15.60;99.90;;;;;;10250535;29;20577;-83
2022/12/31 14:55:08;;;;;;;4.40;2.53;;;15.70;99.90;;;;;;10250341;29;20210;-83
2022/12/31 15:00:27;;;;;;;4.57;2.70;;;15.60;99.90;;;;;;10250451;29;20285;-83
2022/12/31 15:05:35;;;;;;;4.83;3.03;;;15.70;99.90;;;;;;10250732;29;20202;-83
2022/12/31 15:10:59;;;;;;;3.37;2.20;;;15.70;99.90;;;;;;10248549;29;20276;-83
2022/12/31 15:16:20;;;;;;;7.83;3.10;;;15.80;99.90;;;;;;10234034;28;20210;-82
2022/12/31 15:21:40;;;;;;;2.83;2.10;;;15.60;99.90;;;;;;10240786;29;20234;-83
2022/12/31 15:26:51;;;;;;;3.27;1.67;;;15.60;99.90;;;;;;10257580;29;20659;-83
2022/12/31 15:31:56;;;;;;;3.80;2.90;;;15.70;99.90;;;;;;10257206;29;20622;-83
2022/12/31 15:37:01;;;;;;;4.83;2.00;;;15.60;99.90;;;;;;10256104;29;20621;-83
2022/12/31 15:42:33;;;;;;;3.00;2.53;;;15.70;99.90;;;;;;10257280;29;20245;-82
2022/12/31 15:47:55;;;;;;;5.97;2.63;;;15.60;99.90;;;;;;10256783;29;20194;-83
2022/12/31 15:53:01;;;;;;;4.10;2.83;;;15.40;99.90;;;;;;10256873;29;20201;-82
2022/12/31 15:58:09;;;;;;;3.57;2.40;;;15.40;99.90;;;;;;10255381;29;20619;-83
2022/12/31 16:03:23;;;;;;;4.00;2.00;;;15.40;99.90;;;;;;10255842;29;20230;-83
2022/12/31 16:08:30;;;;;;;3.80;2.93;;;15.40;99.90;;;;;;10255870;29;20560;-83
2022/12/31 16:13:38;;;;;;;3.23;2.60;;;15.40;99.90;;;;;;10256203;29;20198;-83
2022/12/31 16:18:42;;;;;;;3.10;2.17;;;15.50;99.90;;;;;;10253987;29;20202;-83
2022/12/31 16:23:50;;;;;;;4.03;3.23;;;15.20;99.90;;;;;;10255425;29;20539;-83
2022/12/31 16:28:58;;;;;;;3.00;2.07;;;15.20;99.90;;;;;;10252963;28;20214;-83
2022/12/31 16:34:10;;;;;;;3.47;2.50;;;15.40;99.90;;;;;;10254711;29;20238;-83
2022/12/31 16:39:23;;;;;;;3.93;2.70;;;15.60;99.90;;;;;;10254691;29;20262;-83
2022/12/31 16:44:28;;;;;;;4.37;2.73;;;15.70;99.90;;;;;;10254523;29;20265;-83
2022/12/31 16:49:33;;;;;;;3.30;1.57;;;15.70;99.90;;;;;;10254329;29;20202;-83
2022/12/31 16:54:42;;;;;;;3.67;2.67;;;15.60;99.90;;;;;;10253991;29;20257;-83
2022/12/31 16:59:47;;;;;;;4.80;2.50;;;15.70;99.90;;;;;;10253542;29;20218;-82
2022/12/31 17:04:51;;;;;;;5.80;2.90;;;15.70;99.90;;;;;;10252545;29;20662;-82
2022/12/31 17:10:20;;;;;;;3.43;2.40;;;15.70;99.90;;;;;;10253362;29;20206;-82
2022/12/31 17:15:40;;;;;;;3.37;2.77;;;15.90;99.90;;;;;;10253207;29;20242;-82
2022/12/31 17:20:42;;;;;;;6.13;3.23;;;15.80;99.90;;;;;;10253330;29;20229;-83
2022/12/31 17:25:45;;;;;;;4.67;2.50;;;15.70;99.90;;;;;;10252612;29;20742;-83
2022/12/31 17:30:48;;;;;;;2.97;2.40;;;15.70;99.90;;;;;;10252181;29;20238;-83
2022/12/31 17:36:14;;;;;;;4.37;2.87;;;15.60;99.90;;;;;;10253144;29;20203;-83
2022/12/31 17:41:24;;;;;;;5.97;3.70;;;15.70;99.90;;;;;;10235554;28;20291;-83
2022/12/31 17:46:27;;;;;;;5.87;3.50;;;15.60;99.90;;;;;;10251813;29;20627;-83
2022/12/31 17:51:30;;;;;;;6.07;2.70;;;15.60;99.90;;;;;;10265858;28;20202;-82
2022/12/31 17:56:32;;;;;;;5.30;2.70;;;15.60;99.90;;;;;;10291677;28;20616;-82
2022/12/31 18:01:35;;;;;;;7.03;3.43;;;15.60;99.90;;;;;;10291399;28;20272;-83
2022/12/31 18:06:37;;;;;;;4.60;3.33;;;15.40;99.90;;;;;;10291697;28;20249;-82
2022/12/31 18:11:40;;;;;;;3.50;2.73;;;15.30;99.90;;;;;;10291300;28;20198;-82
2022/12/31 18:16:43;;;;;;;8.37;4.43;;;15.00;99.90;;;;;;10273772;28;20265;-82
2022/12/31 18:21:46;;;;;;;6.93;4.67;;;15.00;99.90;;;;;;10273664;28;20229;-83
2022/12/31 18:26:49;;;;;;;5.83;3.90;;;14.90;99.90;;;;;;10291190;28;20221;-82
2022/12/31 18:31:52;;;;;;;11.73;5.87;;;14.80;99.90;;;;;;10290799;28;20311;-83
2022/12/31 18:36:55;;;;;;;6.90;4.93;;;14.40;99.90;;;;;;10290617;28;20205;-83
2022/12/31 18:41:58;;;;;;;7.73;5.40;;;14.20;99.90;;;;;;10290673;28;20276;-83
2022/12/31 18:47:00;;;;;;;13.63;8.33;;;14.30;99.90;;;;;;10290692;28;20579;-83
2022/12/31 18:52:03;;;;;;;6.77;3.50;;;14.30;99.90;;;;;;10293202;28;20190;-83
2022/12/31 18:57:06;;;;;;;10.73;4.90;;;14.40;99.90;;;;;;10280725;28;20209;-83
2022/12/31 19:02:16;;;;;;;10.80;5.50;;;14.40;99.90;;;;;;10297484;28;20591;-82
2022/12/31 19:07:19;;;;;;;5.50;2.97;;;14.50;99.90;;;;;;10281246;28;20202;-83
2022/12/31 19:12:21;;;;;;;5.17;3.37;;;14.50;99.90;;;;;;10297710;28;20627;-83
2022/12/31 19:17:24;;;;;;;8.43;4.70;;;14.60;99.90;;;;;;10297866;28;20268;-83
2022/12/31 19:22:27;;;;;;;3.67;2.37;;;14.50;99.90;;;;;;10280109;28;20261;-82
2022/12/31 19:27:29;;;;;;;4.13;3.17;;;14.80;99.90;;;;;;10297439;28;20330;-83
2022/12/31 19:32:32;;;;;;;5.67;2.50;;;14.90;99.90;;;;;;10296914;28;20233;-83
2022/12/31 19:37:34;;;;;;;3.30;2.60;;;15.00;99.90;;;;;;10297290;28;20197;-83
2022/12/31 19:42:37;;;;;;;4.97;2.80;;;15.10;99.90;;;;;;10296782;28;20221;-83
2022/12/31 19:47:39;;;;;;;4.63;3.20;;;15.20;99.90;;;;;;10296730;28;20198;-83
2022/12/31 19:52:43;;;;;;;3.90;2.63;;;15.30;99.90;;;;;;10295366;28;20568;-83
2022/12/31 19:57:47;;;;;;;4.70;3.30;;;15.40;99.90;;;;;;10296031;28;20233;-82
2022/12/31 20:02:50;;;;;;;6.63;3.13;;;15.30;99.90;;;;;;10294298;28;20233;-83
2022/12/31 20:07:53;;;;;;;3.10;2.50;;;15.00;99.90;;;;;;10296114;28;20265;-83
2022/12/31 20:12:55;;;;;;;3.97;3.13;;;15.10;99.90;;;;;;10296065;28;20197;-82
2022/12/31 20:17:58;;;;;;;3.07;1.83;;;15.30;99.90;;;;;;10295652;28;20201;-82
2022/12/31 20:23:01;;;;;;;4.63;2.53;;;15.30;99.90;;;;;;10295474;28;20218;-82
2022/12/31 20:28:04;;;;;;;7.47;4.37;;;15.10;99.90;;;;;;10294470;28;20210;-82
2022/12/31 20:33:06;;;;;;;5.73;3.93;;;15.30;99.90;;;;;;10294484;28;20238;-83
2022/12/31 20:38:09;;;;;;;5.80;3.00;;;15.10;99.90;;;;;;10293754;28;20253;-82
2022/12/31 20:43:11;;;;;;;13.70;4.83;;;15.30;99.90;;;;;;10294703;28;20221;-82
2022/12/31 20:48:14;;;;;;;7.87;4.03;;;15.10;99.90;;;;;;10294361;28;20206;-83
2022/12/31 20:53:16;;;;;;;5.43;3.40;;;15.20;99.90;;;;;;10277002;28;20209;-83
2022/12/31 20:58:19;;;;;;;7.17;4.03;;;15.10;99.90;;;;;;10294267;28;20198;-83
2022/12/31 21:03:22;;;;;;;5.97;3.30;;;15.00;99.90;;;;;;10292127;28;20226;-83
2022/12/31 21:08:45;;;;;;;4.57;3.40;;;15.00;99.90;;;;;;10293448;28;20570;-82
2022/12/31 21:13:47;;;;;;;3.70;2.93;;;15.20;99.90;;;;;;10293300;28;20620;-82
2022/12/31 21:18:50;;;;;;;4.40;3.40;;;15.00;99.90;;;;;;10292913;28;20256;-82
2022/12/31 21:23:53;;;;;;;5.27;3.07;;;15.00;99.90;;;;;;10292557;28;20233;-82
2022/12/31 21:28:55;;;;;;;6.37;2.47;;;15.20;99.90;;;;;;10293133;28;20252;-82
2022/12/31 21:33:58;;;;;;;6.00;3.63;;;15.10;99.90;;;;;;10292001;28;20281;-82
2022/12/31 21:39:00;;;;;;;6.27;4.53;;;15.00;99.90;;;;;;10290328;28;20686;-82
2022/12/31 21:44:03;;;;;;;7.43;4.57;;;14.90;99.90;;;;;;10292503;28;20292;-82
2022/12/31 21:49:05;;;;;;;8.57;4.57;;;14.70;99.90;;;;;;10291474;28;20604;-82
2022/12/31 21:56:06;;;;;;;6.20;3.47;;;14.90;99.90;;;;;;10291937;28;20252;-82
2022/12/31 22:05:12;;;;;;;3.40;2.60;;;14.80;99.90;;;;;;10291601;28;20252;-82
2022/12/31 22:10:26;;;;;;;3.63;2.80;;;14.60;99.90;;;;;;10291051;28;20201;-82
2022/12/31 22:15:28;;;;;;;4.87;2.60;;;14.70;99.90;;;;;;10291409;28;20197;-82
2022/12/31 22:20:31;;;;;;;6.33;3.77;;;14.50;99.90;;;;;;10290980;28;20229;-82
2022/12/31 22:25:35;;;;;;;12.60;4.33;;;14.40;99.90;;;;;;10290687;28;20198;-82
2022/12/31 22:30:37;;;;;;;9.23;4.50;;;14.50;99.90;;;;;;10290726;28;20229;-82
2022/12/31 22:35:40;;;;;;;7.83;4.67;;;14.30;99.90;;;;;;10290647;28;20201;-82
2022/12/31 22:40:42;;;;;;;6.10;3.97;;;14.00;99.90;;;;;;10291027;28;20284;-82
2022/12/31 22:45:45;;;;;;;7.33;5.10;;;13.80;99.90;;;;;;10290682;28;20613;-82
2022/12/31 22:50:58;;;;;;;6.90;5.57;;;13.70;99.90;;;;;;10290908;28;20221;-82
2022/12/31 22:56:00;;;;;;;8.00;5.30;;;13.70;99.90;;;;;;10290350;28;20205;-82
2022/12/31 23:01:05;;;;;;;7.63;3.80;;;13.50;99.90;;;;;;10290445;28;20234;-82
2022/12/31 23:06:07;;;;;;;16.00;10.70;;;13.30;99.90;;;;;;10290417;28;20200;-82
2022/12/31 23:11:10;;;;;;;27.40;19.63;;;13.30;99.90;;;;;;10290559;28;20205;-82
2022/12/31 23:26:56;;;;;;;19.07;13.30;;;13.40;99.90;;;;;;10290053;28;20625;-82
2022/12/31 23:31:59;;;;;;;15.60;12.27;;;13.30;99.90;;;;;;10289801;28;20296;-82
2022/12/31 23:37:01;;;;;;;10.77;7.33;;;13.40;99.90;;;;;;10290225;28;20260;-82
2022/12/31 23:42:04;;;;;;;19.37;13.77;;;13.60;99.90;;;;;;10297199;28;20221;-82
2022/12/31 23:47:07;;;;;;;9.57;6.53;;;13.60;99.90;;;;;;10295687;28;20206;-82
2022/12/31 23:52:09;;;;;;;8.43;5.87;;;13.50;99.90;;;;;;10279149;28;20283;-82
2022/12/31 23:57:12;;;;;;;7.33;4.93;;;13.50;99.90;;;;;;10296689;28;20201;-82
